Time;durP1;ratioP1;P1;durP2;ratioP2;P2;SDS_P1;SDS_P2;PMS_P1;PMS_P2;Temp;Humidity;BMP_temperature;BMP_pressure;BME280_temperature;BME280_humidity;BME280_pressure;Samples;Min_cycle;Max_cycle;Signal;HPM_P1;HPM_P2
2023/04/06 00:01:35;;;;;;;;;;;7.00;56.60;;;;;;5048581;28;19924;-77
2023/04/06 00:04:02;;;;;;;;;;;7.00;56.70;;;;;;5052380;28;20389;-75
2023/04/06 00:06:29;;;;;;;;;;;6.90;56.70;;;;;;5054453;28;19932;-76
2023/04/06 00:08:56;;;;;;;;;;;6.90;56.90;;;;;;5055682;28;19931;-77
2023/04/06 00:11:22;;;;;;;;;;;6.90;57.00;;;;;;5054163;28;19931;-77
2023/04/06 00:13:49;;;;;;;;;;;6.80;57.10;;;;;;5054817;28;19940;-76
2023/04/06 00:16:16;;;;;;;;;;;6.80;57.20;;;;;;5057055;28;19938;-78
2023/04/06 00:18:42;;;;;;;;;;;6.80;57.30;;;;;;5061089;28;19931;-75
2023/04/06 00:21:12;;;;;;;;;;;6.70;57.90;;;;;;5060823;28;19939;-77
2023/04/06 00:23:39;;;;;;;;;;;6.70;57.50;;;;;;5052574;28;20019;-77
2023/04/06 00:26:05;;;;;;;;;;;6.70;57.70;;;;;;5058676;28;19971;-77
2023/04/06 00:28:32;;;;;;;;;;;6.60;57.70;;;;;;5048718;28;20649;-77
2023/04/06 00:30:58;;;;;;;;;;;6.60;57.80;;;;;;5054565;28;19939;-76
2023/04/06 00:33:25;;;;;;;;;;;6.60;58.00;;;;;;5056763;28;20648;-76
2023/04/06 00:35:52;;;;;;;;;;;6.60;58.00;;;;;;5060728;28;19929;-75
2023/04/06 00:38:20;;;;;;;;;;;6.50;58.00;;;;;;5060287;28;20228;-75
2023/04/06 00:40:47;;;;;;;;;;;6.50;58.10;;;;;;5050833;28;19928;-78
2023/04/06 00:43:14;;;;;;;;;;;6.50;58.10;;;;;;5058282;28;19929;-74
2023/04/06 00:45:41;;;;;;;;;;;6.50;58.20;;;;;;5052756;28;19929;-76
2023/04/06 00:48:08;;;;;;;;;;;6.50;58.30;;;;;;5056914;28;19940;-77
2023/04/06 00:50:35;;;;;;;;;;;6.40;58.40;;;;;;5058769;28;19974;-76
2023/04/06 00:53:02;;;;;;;;;;;6.40;58.50;;;;;;5060593;28;20344;-76
2023/04/06 00:55:30;;;;;;;;;;;6.40;58.50;;;;;;5057233;28;19936;-75
2023/04/06 00:57:58;;;;;;;;;;;6.30;58.50;;;;;;5061053;28;19928;-77
2023/04/06 01:00:25;;;;;;;;;;;6.30;58.60;;;;;;5055663;28;19928;-74
2023/04/06 01:02:52;;;;;;;;;;;6.30;58.70;;;;;;5060150;28;20011;-75
2023/04/06 01:05:18;;;;;;;;;;;6.30;58.70;;;;;;5054362;28;19940;-76
2023/04/06 01:07:45;;;;;;;;;;;6.30;58.80;;;;;;5057652;28;19932;-77
2023/04/06 01:10:11;;;;;;;;;;;6.30;58.90;;;;;;5057730;28;21709;-76
2023/04/06 01:12:39;;;;;;;;;;;6.30;58.90;;;;;;5055511;28;20590;-76
2023/04/06 01:15:07;;;;;;;;;;;6.20;58.90;;;;;;5055867;28;19936;-77
2023/04/06 01:17:33;;;;;;;;;;;6.20;59.00;;;;;;5055472;28;20578;-75
2023/04/06 01:20:00;;;;;;;;;;;6.20;59.00;;;;;;5060248;28;19928;-76
2023/04/06 01:22:28;;;;;;;;;;;6.10;59.00;;;;;;5055605;28;19958;-77
2023/04/06 01:24:54;;;;;;;;;;;6.10;59.10;;;;;;5055085;28;20485;-74
2023/04/06 01:27:21;;;;;;;;;;;6.10;59.20;;;;;;5055169;28;19936;-74
2023/04/06 01:29:47;;;;;;;;;;;6.10;59.30;;;;;;5054341;28;19932;-74
2023/04/06 01:32:14;;;;;;;;;;;6.10;59.30;;;;;;5055735;28;19939;-74
2023/04/06 01:34:41;;;;;;;;;;;6.00;59.30;;;;;;5055664;28;19928;-73
2023/04/06 01:37:07;;;;;;;;;;;6.00;59.40;;;;;;5056773;28;20011;-74
2023/04/06 01:39:35;;;;;;;;;;;6.00;59.50;;;;;;5055279;28;19936;-77
2023/04/06 01:42:02;;;;;;;;;;;6.00;59.60;;;;;;5055760;28;20656;-77
2023/04/06 01:44:30;;;;;;;;;;;6.00;59.70;;;;;;5055832;28;19936;-76
2023/04/06 01:46:56;;;;;;;;;;;5.90;59.70;;;;;;5050738;28;20478;-77
2023/04/06 01:49:23;;;;;;;;;;;5.90;59.70;;;;;;5058427;28;19936;-76
2023/04/06 01:51:49;;;;;;;;;;;5.90;59.80;;;;;;5048323;28;19936;-76
2023/04/06 01:54:16;;;;;;;;;;;5.90;59.80;;;;;;5054160;28;20672;-77
2023/04/06 01:56:44;;;;;;;;;;;5.90;59.90;;;;;;5051834;28;19942;-75
2023/04/06 01:59:10;;;;;;;;;;;5.80;59.90;;;;;;5054551;28;20448;-77
2023/04/06 02:01:37;;;;;;;;;;;5.80;59.90;;;;;;5054022;28;19925;-76
2023/04/06 02:04:03;;;;;;;;;;;5.80;60.00;;;;;;5058994;28;20432;-77
2023/04/06 02:06:30;;;;;;;;;;;5.70;59.90;;;;;;5054320;28;20764;-76
2023/04/06 02:08:57;;;;;;;;;;;5.70;60.00;;;;;;5054924;28;19925;-77
2023/04/06 02:11:23;;;;;;;;;;;5.70;60.10;;;;;;5056961;28;19928;-75
2023/04/06 02:13:51;;;;;;;;;;;5.70;60.30;;;;;;5053278;28;20332;-76
2023/04/06 02:16:17;;;;;;;;;;;5.70;60.40;;;;;;5053282;28;19924;-75
2023/04/06 02:18:44;;;;;;;;;;;5.70;60.50;;;;;;5054632;28;19978;-75
2023/04/06 02:21:11;;;;;;;;;;;5.60;60.50;;;;;;5054961;28;20664;-76
2023/04/06 02:23:38;;;;;;;;;;;5.60;60.60;;;;;;5057195;28;19928;-77
2023/04/06 02:26:05;;;;;;;;;;;5.60;60.70;;;;;;5054181;28;19935;-76
2023/04/06 02:28:31;;;;;;;;;;;5.60;60.80;;;;;;5055766;28;20425;-77
2023/04/06 02:30:59;;;;;;;;;;;5.50;61.60;;;;;;5052034;28;19933;-75
2023/04/06 02:33:26;;;;;;;;;;;5.50;60.90;;;;;;5055135;28;20491;-77
2023/04/06 02:35:52;;;;;;;;;;;5.50;61.00;;;;;;5053615;28;19974;-75
2023/04/06 02:38:19;;;;;;;;;;;5.50;61.10;;;;;;5055499;28;19932;-77
2023/04/06 02:40:45;;;;;;;;;;;5.50;61.20;;;;;;5056201;28;19928;-76
2023/04/06 02:43:12;;;;;;;;;;;5.40;61.10;;;;;;5054746;28;19933;-76
2023/04/06 02:45:38;;;;;;;;;;;5.40;61.20;;;;;;5054630;28;19943;-76
2023/04/06 02:48:06;;;;;;;;;;;5.40;61.30;;;;;;5052877;28;19970;-77
2023/04/06 02:50:33;;;;;;;;;;;5.40;61.40;;;;;;5053448;28;19936;-76
2023/04/06 02:53:00;;;;;;;;;;;5.40;61.40;;;;;;5051901;28;19932;-76
2023/04/06 02:55:26;;;;;;;;;;;5.30;61.40;;;;;;5053009;28;19935;-77
2023/04/06 02:57:53;;;;;;;;;;;5.30;61.60;;;;;;5048058;28;19932;-75
2023/04/06 03:00:20;;;;;;;;;;;5.30;61.70;;;;;;5051789;28;20478;-75
2023/04/06 03:02:47;;;;;;;;;;;5.20;61.70;;;;;;5048993;28;20549;-77
2023/04/06 03:05:15;;;;;;;;;;;5.20;61.80;;;;;;5049049;28;20952;-74
2023/04/06 03:07:41;;;;;;;;;;;5.10;61.80;;;;;;5051219;28;19936;-76
2023/04/06 03:10:09;;;;;;;;;;;5.10;61.90;;;;;;5052468;28;19928;-77
2023/04/06 03:12:35;;;;;;;;;;;5.00;62.00;;;;;;5051441;28;20019;-76
2023/04/06 03:15:02;;;;;;;;;;;5.00;62.10;;;;;;5051490;28;19928;-77
2023/04/06 03:17:29;;;;;;;;;;;5.00;62.20;;;;;;5048551;28;21029;-76
2023/04/06 03:19:55;;;;;;;;;;;5.00;62.30;;;;;;5053836;28;19936;-75
2023/04/06 03:22:23;;;;;;;;;;;4.90;62.40;;;;;;5054912;28;20410;-76
2023/04/06 03:24:50;;;;;;;;;;;4.80;62.40;;;;;;5054146;28;19985;-77
2023/04/06 03:27:16;;;;;;;;;;;4.90;62.50;;;;;;5049046;28;20027;-77
2023/04/06 03:29:43;;;;;;;;;;;4.80;62.50;;;;;;5053694;28;19955;-75
2023/04/06 03:32:10;;;;;;;;;;;4.80;62.60;;;;;;5049057;28;19924;-76
2023/04/06 03:34:36;;;;;;;;;;;4.80;62.60;;;;;;5054234;28;20033;-76
2023/04/06 03:37:03;;;;;;;;;;;4.80;62.80;;;;;;5048829;28;19964;-77
2023/04/06 03:39:31;;;;;;;;;;;4.70;62.70;;;;;;5050552;28;19932;-76
2023/04/06 03:41:58;;;;;;;;;;;4.70;62.80;;;;;;5050635;28;20329;-75
2023/04/06 03:44:24;;;;;;;;;;;4.70;62.90;;;;;;5051003;28;20478;-75
2023/04/06 03:46:51;;;;;;;;;;;4.70;62.90;;;;;;5050596;28;19932;-77
2023/04/06 03:49:17;;;;;;;;;;;4.70;63.00;;;;;;5052896;28;20000;-76
2023/04/06 03:51:44;;;;;;;;;;;4.70;63.10;;;;;;5044940;28;19932;-75
2023/04/06 03:54:10;;;;;;;;;;;4.60;63.20;;;;;;5047735;28;20764;-77
2023/04/06 03:56:38;;;;;;;;;;;4.60;63.10;;;;;;5050690;28;20638;-76
2023/04/06 03:59:05;;;;;;;;;;;4.60;63.20;;;;;;5051557;28;20397;-77
2023/04/06 04:01:31;;;;;;;;;;;4.60;63.30;;;;;;5052691;28;19929;-76
2023/04/06 04:03:58;;;;;;;;;;;4.60;63.40;;;;;;5054975;28;19943;-76
2023/04/06 04:06:24;;;;;;;;;;;4.50;63.30;;;;;;5057459;28;19928;-75
2023/04/06 04:08:51;;;;;;;;;;;4.50;63.40;;;;;;5058526;28;19932;-77
2023/04/06 04:11:18;;;;;;;;;;;4.50;63.50;;;;;;5059193;28;19928;-76
2023/04/06 04:13:46;;;;;;;;;;;4.50;63.50;;;;;;5054856;28;19939;-74
2023/04/06 04:16:12;;;;;;;;;;;4.50;63.50;;;;;;5052540;28;19929;-72
2023/04/06 04:18:39;;;;;;;;;;;4.40;63.60;;;;;;5053444;28;19929;-76
2023/04/06 04:21:05;;;;;;;;;;;4.40;63.70;;;;;;5052910;28;19928;-76
2023/04/06 04:23:32;;;;;;;;;;;4.40;63.70;;;;;;5053842;28;19929;-74
2023/04/06 04:25:58;;;;;;;;;;;4.40;63.80;;;;;;5050012;28;20247;-75
2023/04/06 04:28:25;;;;;;;;;;;4.40;64.70;;;;;;5054760;28;19936;-74
2023/04/06 04:30:53;;;;;;;;;;;4.30;63.90;;;;;;5054273;28;19936;-76
2023/04/06 04:33:19;;;;;;;;;;;4.30;64.00;;;;;;5052007;28;19928;-76
2023/04/06 04:35:46;;;;;;;;;;;4.30;64.10;;;;;;5050420;28;20697;-75
2023/04/06 04:38:12;;;;;;;;;;;4.20;64.20;;;;;;5051885;28;19929;-73
2023/04/06 04:40:39;;;;;;;;;;;4.20;64.30;;;;;;5053230;28;19929;-76
2023/04/06 04:43:05;;;;;;;;;;;4.20;64.30;;;;;;5054062;28;19928;-76
2023/04/06 04:45:32;;;;;;;;;;;4.20;64.40;;;;;;5050165;28;19936;-75
2023/04/06 04:48:00;;;;;;;;;;;4.20;64.40;;;;;;5055159;28;19937;-77
2023/04/06 04:50:26;;;;;;;;;;;4.10;64.40;;;;;;5050510;28;20335;-77
2023/04/06 04:52:53;;;;;;;;;;;4.20;64.60;;;;;;5052172;28;20337;-73
2023/04/06 04:55:19;;;;;;;;;;;4.10;64.60;;;;;;5053460;28;19928;-75
2023/04/06 04:57:46;;;;;;;;;;;4.10;64.70;;;;;;5053954;28;19932;-75
2023/04/06 05:00:13;;;;;;;;;;;4.00;64.80;;;;;;5053609;28;20452;-74
2023/04/06 05:02:40;;;;;;;;;;;4.00;64.90;;;;;;5046892;28;20378;-75
2023/04/06 05:05:08;;;;;;;;;;;4.00;64.90;;;;;;5051935;28;19938;-76
2023/04/06 05:07:35;;;;;;;;;;;4.00;65.00;;;;;;5057554;28;19970;-75
2023/04/06 05:10:02;;;;;;;;;;;4.00;65.00;;;;;;5057390;28;19932;-76
2023/04/06 05:12:28;;;;;;;;;;;4.00;65.00;;;;;;5057494;28;19932;-74
2023/04/06 05:14:55;;;;;;;;;;;3.90;65.00;;;;;;5052095;28;19940;-77
2023/04/06 05:17:21;;;;;;;;;;;3.90;65.10;;;;;;5054034;28;20350;-76
2023/04/06 05:19:48;;;;;;;;;;;3.90;65.20;;;;;;5055349;28;20303;-73
2023/04/06 05:22:17;;;;;;;;;;;3.90;65.30;;;;;;5054490;28;20832;-76
2023/04/06 05:24:43;;;;;;;;;;;3.80;65.30;;;;;;5050627;28;20058;-73
2023/04/06 05:27:10;;;;;;;;;;;3.80;65.40;;;;;;5053368;28;20002;-77
2023/04/06 05:29:37;;;;;;;;;;;3.80;65.50;;;;;;5057430;28;20309;-75
2023/04/06 05:32:03;;;;;;;;;;;3.80;65.50;;;;;;5057363;28;19929;-75
2023/04/06 05:34:30;;;;;;;;;;;3.80;65.60;;;;;;5052213;28;19933;-75
2023/04/06 05:36:56;;;;;;;;;;;3.80;65.70;;;;;;5051941;28;19928;-76
2023/04/06 05:39:25;;;;;;;;;;;3.80;65.70;;;;;;5054865;28;20456;-75
2023/04/06 05:41:51;;;;;;;;;;;3.80;65.70;;;;;;5054021;28;20013;-77
2023/04/06 05:44:18;;;;;;;;;;;3.80;65.70;;;;;;5047294;28;20723;-69
2023/04/06 05:46:45;;;;;;;;;;;3.80;65.70;;;;;;5051217;28;19928;-70
2023/04/06 05:49:12;;;;;;;;;;;3.80;65.70;;;;;;5051623;28;19932;-69
2023/04/06 05:51:38;;;;;;;;;;;3.80;65.70;;;;;;5052344;28;20393;-72
2023/04/06 05:54:05;;;;;;;;;;;3.80;66.50;;;;;;5053060;28;19924;-72
2023/04/06 05:56:33;;;;;;;;;;;3.80;65.90;;;;;;5056121;28;19940;-71
2023/04/06 05:59:00;;;;;;;;;;;3.70;66.00;;;;;;5055543;28;19935;-70
2023/04/06 06:01:26;;;;;;;;;;;3.70;66.00;;;;;;5054238;28;19932;-70
2023/04/06 06:03:53;;;;;;;;;;;3.70;66.00;;;;;;5053867;28;19929;-70
2023/04/06 06:06:19;;;;;;;;;;;3.70;66.10;;;;;;5056379;28;19952;-71
2023/04/06 06:08:46;;;;;;;;;;;3.70;66.20;;;;;;5056837;28;20638;-71
2023/04/06 06:11:12;;;;;;;;;;;3.70;66.20;;;;;;5050533;28;19939;-71
2023/04/06 06:13:40;;;;;;;;;;;3.70;66.30;;;;;;5060750;28;19928;-72
2023/04/06 06:16:07;;;;;;;;;;;3.70;66.30;;;;;;5055626;28;20573;-71
2023/04/06 06:18:33;;;;;;;;;;;3.60;66.30;;;;;;5057474;28;19928;-70
2023/04/06 06:21:00;;;;;;;;;;;3.70;66.50;;;;;;5061017;28;20402;-69
2023/04/06 06:23:26;;;;;;;;;;;3.60;66.40;;;;;;5057335;28;19932;-71
2023/04/06 06:25:53;;;;;;;;;;;3.60;66.50;;;;;;5050289;28;19935;-70
2023/04/06 06:28:19;;;;;;;;;;;3.60;66.60;;;;;;5054197;28;20522;-70
2023/04/06 06:30:47;;;;;;;;;;;3.60;66.60;;;;;;5060681;28;19929;-70
2023/04/06 06:33:14;;;;;;;;;;;3.60;66.70;;;;;;5055341;28;19928;-69
2023/04/06 06:35:40;;;;;;;;;;;3.60;66.80;;;;;;5056870;28;19928;-71
2023/04/06 06:38:07;;;;;;;;;;;3.60;66.80;;;;;;5061134;28;20714;-71
2023/04/06 06:40:34;;;;;;;;;;;3.60;66.90;;;;;;5055244;28;20555;-69
2023/04/06 06:43:00;;;;;;;;;;;3.60;67.00;;;;;;5053785;28;19973;-71
2023/04/06 06:45:29;;;;;;;;;;;3.70;67.00;;;;;;5052493;28;20299;-70
2023/04/06 06:47:56;;;;;;;;;;;3.60;67.10;;;;;;5051493;28;20007;-72
2023/04/06 06:50:23;;;;;;;;;;;3.70;67.20;;;;;;5058067;28;19929;-68
2023/04/06 06:52:50;;;;;;;;;;;3.60;67.30;;;;;;5056042;28;19929;-69
2023/04/06 06:55:18;;;;;;;;;;;3.70;67.40;;;;;;5056124;28;20433;-71
2023/04/06 06:57:46;;;;;;;;;;;3.70;67.40;;;;;;5055887;28;19928;-68
2023/04/06 07:00:13;;;;;;;;;;;3.60;67.40;;;;;;5054541;28;19932;-69
2023/04/06 07:02:39;;;;;;;;;;;3.60;67.50;;;;;;5036007;28;19935;-68
2023/04/06 07:05:08;;;;;;;;;;;3.60;67.60;;;;;;5028575;28;20048;-69
2023/04/06 07:07:34;;;;;;;;;;;3.70;67.70;;;;;;5037027;28;19936;-68
2023/04/06 07:10:01;;;;;;;;;;;3.70;67.70;;;;;;5034765;28;19936;-70
2023/04/06 07:12:27;;;;;;;;;;;3.70;67.80;;;;;;5041103;28;19928;-69
2023/04/06 07:14:54;;;;;;;;;;;3.70;67.70;;;;;;5038663;28;22760;-70
2023/04/06 07:17:21;;;;;;;;;;;3.70;67.70;;;;;;5051594;28;19936;-71
2023/04/06 07:19:47;;;;;;;;;;;3.70;67.70;;;;;;5055861;28;20204;-70
2023/04/06 07:22:15;;;;;;;;;;;3.70;67.70;;;;;;5059101;28;19928;-69
2023/04/06 07:24:41;;;;;;;;;;;3.70;67.70;;;;;;5050198;28;20440;-69
2023/04/06 07:27:08;;;;;;;;;;;3.70;67.70;;;;;;5055589;28;19932;-70
2023/04/06 07:29:34;;;;;;;;;;;3.80;67.70;;;;;;5057911;28;19924;-71
2023/04/06 07:32:01;;;;;;;;;;;3.70;67.60;;;;;;5057966;28;19936;-76
2023/04/06 07:34:28;;;;;;;;;;;3.70;67.70;;;;;;5050834;28;19932;-74
2023/04/06 07:36:54;;;;;;;;;;;3.80;67.70;;;;;;5056235;28;19940;-74
2023/04/06 07:39:22;;;;;;;;;;;3.80;67.70;;;;;;5052467;28;19931;-76
2023/04/06 07:41:49;;;;;;;;;;;3.80;67.70;;;;;;5053258;28;19935;-73
2023/04/06 07:44:15;;;;;;;;;;;3.80;67.80;;;;;;5052618;28;19932;-74
2023/04/06 07:46:42;;;;;;;;;;;3.90;67.90;;;;;;5042032;28;20108;-73
2023/04/06 07:49:08;;;;;;;;;;;3.90;67.90;;;;;;5037468;28;19933;-76
2023/04/06 07:51:36;;;;;;;;;;;3.90;68.00;;;;;;5033528;28;21100;-76
2023/04/06 07:54:03;;;;;;;;;;;3.90;67.90;;;;;;5028518;28;19940;-74
2023/04/06 07:56:30;;;;;;;;;;;3.90;68.00;;;;;;5027353;28;19963;-75
2023/04/06 07:58:57;;;;;;;;;;;3.90;68.00;;;;;;5029891;28;20750;-74
2023/04/06 08:01:24;;;;;;;;;;;4.00;68.00;;;;;;5041030;28;20382;-74
2023/04/06 08:03:51;;;;;;;;;;;4.00;68.10;;;;;;5048470;28;19935;-73
2023/04/06 08:06:17;;;;;;;;;;;4.00;68.30;;;;;;5053114;28;19937;-70
2023/04/06 08:08:44;;;;;;;;;;;4.00;68.30;;;;;;5057226;28;19997;-68
2023/04/06 08:11:10;;;;;;;;;;;4.10;68.60;;;;;;5059459;28;19928;-72
2023/04/06 08:13:38;;;;;;;;;;;4.10;68.70;;;;;;5058694;28;19935;-72
2023/04/06 08:16:05;;;;;;;;;;;4.10;68.80;;;;;;5054817;28;19935;-71
2023/04/06 08:18:32;;;;;;;;;;;4.10;68.90;;;;;;5060895;28;20325;-71
2023/04/06 08:20:58;;;;;;;;;;;4.20;69.10;;;;;;5053361;28;19935;-71
2023/04/06 08:23:25;;;;;;;;;;;4.20;69.80;;;;;;5048697;28;19991;-71
2023/04/06 08:25:54;;;;;;;;;;;4.20;69.20;;;;;;5048337;28;20375;-71
2023/04/06 08:28:20;;;;;;;;;;;4.20;69.50;;;;;;5054881;28;19928;-70
2023/04/06 08:30:48;;;;;;;;;;;4.30;69.70;;;;;;5054094;28;19928;-72
2023/04/06 08:33:15;;;;;;;;;;;4.40;69.90;;;;;;5061080;28;19982;-68
2023/04/06 08:35:41;;;;;;;;;;;4.40;69.80;;;;;;5052309;28;19928;-69
2023/04/06 08:38:08;;;;;;;;;;;4.40;69.50;;;;;;5053457;28;19940;-72
2023/04/06 08:40:36;;;;;;;;;;;4.50;69.40;;;;;;5050953;28;19928;-73
2023/04/06 08:43:08;;;;;;;;;;;4.50;69.30;;;;;;5053669;28;20739;-70
2023/04/06 08:45:34;;;;;;;;;;;4.60;69.10;;;;;;5046377;28;19928;-73
2023/04/06 08:48:03;;;;;;;;;;;4.70;68.90;;;;;;5057725;28;19928;-71
2023/04/06 08:50:30;;;;;;;;;;;4.70;68.80;;;;;;5054571;28;19932;-72
2023/04/06 08:52:57;;;;;;;;;;;4.80;68.70;;;;;;5057399;28;20024;-71
2023/04/06 08:55:24;;;;;;;;;;;4.80;68.50;;;;;;5053612;28;20046;-70
2023/04/06 08:57:53;;;;;;;;;;;4.90;68.40;;;;;;5055445;28;20017;-73
2023/04/06 09:00:20;;;;;;;;;;;5.00;68.20;;;;;;5052594;28;19998;-73
2023/04/06 09:02:47;;;;;;;;;;;5.10;68.00;;;;;;5057794;28;19933;-73
2023/04/06 09:05:15;;;;;;;;;;;5.10;67.70;;;;;;5052393;28;19997;-68
2023/04/06 09:07:42;;;;;;;;;;;5.20;67.50;;;;;;5052163;28;19932;-68
2023/04/06 09:10:09;;;;;;;;;;;5.30;67.20;;;;;;5055415;28;20057;-70
2023/04/06 09:12:36;;;;;;;;;;;5.30;67.00;;;;;;5057381;28;19967;-71
2023/04/06 09:15:02;;;;;;;;;;;5.40;66.70;;;;;;5057060;28;20015;-70
2023/04/06 09:17:29;;;;;;;;;;;5.50;66.40;;;;;;5055609;28;19963;-72
2023/04/06 09:19:56;;;;;;;;;;;5.60;66.30;;;;;;5054882;28;19929;-72
2023/04/06 09:22:26;;;;;;;;;;;5.70;66.10;;;;;;5058346;28;19940;-72
2023/04/06 09:24:54;;;;;;;;;;;5.80;65.70;;;;;;5055767;28;19932;-71
2023/04/06 09:27:30;;;;;;;;;;;5.80;65.60;;;;;;5053509;28;20014;-72
2023/04/06 09:30:03;;;;;;;;;;;5.90;65.50;;;;;;5052602;28;19928;-73
2023/04/06 09:32:29;;;;;;;;;;;5.90;65.40;;;;;;5056002;28;19940;-70
2023/04/06 09:35:05;;;;;;;;;;;6.00;65.30;;;;;;5050292;28;20311;-74
2023/04/06 09:37:33;;;;;;;;;;;6.10;65.10;;;;;;5058000;28;20319;-72
2023/04/06 09:40:03;;;;;;;;;;;6.20;64.90;;;;;;5052914;28;19932;-72
2023/04/06 09:42:30;;;;;;;;;;;6.30;64.50;;;;;;5056198;28;19932;-70
2023/04/06 09:44:56;;;;;;;;;;;6.30;64.40;;;;;;5054176;28;20522;-73
2023/04/06 09:47:23;;;;;;;;;;;6.40;64.40;;;;;;5062239;28;20534;-72
2023/04/06 09:49:51;;;;;;;;;;;6.50;64.40;;;;;;5056970;28;19967;-72
2023/04/06 09:52:18;;;;;;;;;;;6.50;64.20;;;;;;5054393;28;19932;-73
2023/04/06 09:54:48;;;;;;;;;;;6.60;63.70;;;;;;5054410;28;21443;-71
2023/04/06 09:57:21;;;;;;;;;;;6.70;63.70;;;;;;5057292;28;19928;-72
2023/04/06 09:59:51;;;;;;;;;;;6.70;63.70;;;;;;5060375;28;19932;-74
2023/04/06 10:02:21;;;;;;;;;;;6.80;63.30;;;;;;5056366;28;19982;-72
2023/04/06 10:04:50;;;;;;;;;;;7.00;62.90;;;;;;5048594;28;19929;-73
2023/04/06 10:07:18;;;;;;;;;;;7.00;62.60;;;;;;5053809;28;19936;-77
2023/04/06 10:09:45;;;;;;;;;;;7.10;62.20;;;;;;5052353;28;19933;-78
2023/04/06 10:12:14;;;;;;;;;;;7.10;61.80;;;;;;5038542;28;19959;-75
2023/04/06 10:14:40;;;;;;;;;;;7.20;61.60;;;;;;5044642;28;19951;-79
2023/04/06 10:17:07;;;;;;;;;;;7.30;61.20;;;;;;5044307;28;20015;-79
2023/04/06 10:19:39;;;;;;;;;;;7.30;61.20;;;;;;5046661;28;19940;-78
2023/04/06 10:22:07;;;;;;;;;;;7.40;61.20;;;;;;5050087;28;19928;-78
2023/04/06 10:24:33;;;;;;;;;;;7.50;61.20;;;;;;5053466;28;19932;-80
2023/04/06 10:27:02;;;;;;;;;;;7.60;61.10;;;;;;5048871;28;19963;-78
2023/04/06 10:29:41;;;;;;;;;;;7.70;61.00;;;;;;5052165;28;20353;-79
2023/04/06 10:32:07;;;;;;;;;;;7.70;60.60;;;;;;5050348;28;19932;-76
2023/04/06 10:34:35;;;;;;;;;;;7.80;60.30;;;;;;5054902;28;19932;-79
2023/04/06 10:37:10;;;;;;;;;;;7.80;60.10;;;;;;5058272;28;19940;-74
2023/04/06 10:39:46;;;;;;;;;;;7.90;60.20;;;;;;5052263;28;19933;-79
2023/04/06 10:42:12;;;;;;;;;;;8.00;60.10;;;;;;5056639;28;19928;-77
2023/04/06 10:44:44;;;;;;;;;;;8.10;59.90;;;;;;5057543;28;20031;-73
2023/04/06 10:47:16;;;;;;;;;;;8.20;59.70;;;;;;5055440;28;19998;-73
2023/04/06 10:49:43;;;;;;;;;;;8.20;59.40;;;;;;5054128;28;19928;-76
2023/04/06 10:52:11;;;;;;;;;;;8.30;58.90;;;;;;5053243;28;20302;-73
2023/04/06 10:54:41;;;;;;;;;;;8.40;58.10;;;;;;5048620;28;19951;-74
2023/04/06 10:57:08;;;;;;;;;;;8.50;58.00;;;;;;5045301;28;19932;-77
2023/04/06 10:59:34;;;;;;;;;;;8.50;57.50;;;;;;5048056;28;19936;-78
2023/04/06 11:02:02;;;;;;;;;;;8.60;57.40;;;;;;5048510;28;19940;-79
2023/04/06 11:04:29;;;;;;;;;;;8.60;57.30;;;;;;5050675;28;19940;-76
2023/04/06 11:06:57;;;;;;;;;;;8.70;57.20;;;;;;5053084;28;19929;-78
2023/04/06 11:09:25;;;;;;;;;;;8.80;57.00;;;;;;5047660;28;20019;-78
2023/04/06 11:11:52;;;;;;;;;;;8.90;57.10;;;;;;5042857;28;19932;-78
2023/04/06 11:14:19;;;;;;;;;;;8.90;56.70;;;;;;5043104;28;19928;-78
2023/04/06 11:16:47;;;;;;;;;;;9.00;56.30;;;;;;5045235;28;19981;-77
2023/04/06 11:19:15;;;;;;;;;;;9.00;56.00;;;;;;5048473;28;19928;-79
2023/04/06 11:21:43;;;;;;;;;;;9.10;56.30;;;;;;5057444;28;19946;-78
2023/04/06 11:24:10;;;;;;;;;;;9.10;56.10;;;;;;5048943;28;20394;-80
2023/04/06 11:26:40;;;;;;;;;;;9.20;56.00;;;;;;5054369;28;20051;-79
2023/04/06 11:29:07;;;;;;;;;;;9.30;55.80;;;;;;5050478;28;20594;-77
2023/04/06 11:31:40;;;;;;;;;;;9.40;55.90;;;;;;5051834;28;20418;-75
2023/04/06 11:34:09;;;;;;;;;;;9.40;55.90;;;;;;5047253;28;20486;-79
2023/04/06 11:36:41;;;;;;;;;;;9.50;55.70;;;;;;5051763;28;20109;-76
2023/04/06 11:39:07;;;;;;;;;;;9.50;55.40;;;;;;5052940;28;19925;-80
2023/04/06 11:41:34;;;;;;;;;;;9.60;55.40;;;;;;5055220;28;19935;-79
2023/04/06 11:44:01;;;;;;;;;;;9.70;54.50;;;;;;5057069;28;19929;-78
2023/04/06 11:46:28;;;;;;;;;;;9.80;54.30;;;;;;5044930;28;19929;-77
2023/04/06 11:48:58;;;;;;;;;;;9.90;54.00;;;;;;5055384;28;19933;-79
2023/04/06 11:51:26;;;;;;;;;;;9.90;53.80;;;;;;5055666;28;20050;-78
2023/04/06 11:53:54;;;;;;;;;;;10.00;53.90;;;;;;5053303;28;20450;-78
2023/04/06 11:56:24;;;;;;;;;;;10.00;53.80;;;;;;5044096;28;19933;-79
2023/04/06 11:58:51;;;;;;;;;;;10.10;53.80;;;;;;5048044;28;20011;-78
2023/04/06 12:01:17;;;;;;;;;;;10.20;53.80;;;;;;5053902;28;19967;-78
2023/04/06 12:03:45;;;;;;;;;;;10.20;53.20;;;;;;5051860;28;19958;-78
2023/04/06 12:06:12;;;;;;;;;;;10.30;52.80;;;;;;5051546;28;19936;-79
2023/04/06 12:08:38;;;;;;;;;;;10.40;53.10;;;;;;5057054;28;20622;-79
2023/04/06 12:11:06;;;;;;;;;;;10.30;52.90;;;;;;5054938;28;20426;-79
2023/04/06 12:13:32;;;;;;;;;;;10.40;53.10;;;;;;5058447;28;19986;-80
2023/04/06 12:15:59;;;;;;;;;;;10.40;53.20;;;;;;5053151;28;19928;-78
2023/04/06 12:18:26;;;;;;;;;;;10.50;53.40;;;;;;5051057;28;19952;-78
2023/04/06 12:20:52;;;;;;;;;;;10.50;53.10;;;;;;5050639;28;20487;-79
2023/04/06 12:23:19;;;;;;;;;;;10.50;52.70;;;;;;5058095;28;20389;-81
2023/04/06 12:25:46;;;;;;;;;;;10.60;52.90;;;;;;5052230;28;19938;-77
2023/04/06 12:28:14;;;;;;;;;;;10.60;53.00;;;;;;5059039;28;19928;-79
2023/04/06 12:30:41;;;;;;;;;;;10.70;51.80;;;;;;5049211;28;19936;-79
2023/04/06 12:33:08;;;;;;;;;;;10.70;52.10;;;;;;5055099;28;20023;-77
2023/04/06 12:35:34;;;;;;;;;;;10.80;52.20;;;;;;5053869;28;19937;-80
2023/04/06 12:38:01;;;;;;;;;;;10.80;52.40;;;;;;5053945;28;20462;-79
2023/04/06 12:40:28;;;;;;;;;;;10.80;52.70;;;;;;5054841;28;19929;-79
2023/04/06 12:42:54;;;;;;;;;;;10.90;52.30;;;;;;5056559;28;19939;-78
2023/04/06 12:45:22;;;;;;;;;;;10.90;53.00;;;;;;5054766;28;19939;-78
2023/04/06 12:47:49;;;;;;;;;;;11.00;52.40;;;;;;5040328;28;20477;-78
2023/04/06 12:50:15;;;;;;;;;;;11.10;51.90;;;;;;5048806;28;19936;-77
2023/04/06 12:52:42;;;;;;;;;;;11.20;50.60;;;;;;5058047;28;19941;-78
2023/04/06 12:55:09;;;;;;;;;;;11.20;51.10;;;;;;5054054;28;19940;-75
2023/04/06 12:57:36;;;;;;;;;;;11.20;50.80;;;;;;5054028;28;20373;-72
2023/04/06 13:00:03;;;;;;;;;;;11.30;50.90;;;;;;5055780;28;19928;-72
2023/04/06 13:02:32;;;;;;;;;;;11.40;51.20;;;;;;5044119;28;19928;-71
2023/04/06 13:04:58;;;;;;;;;;;11.40;50.70;;;;;;5034355;28;19928;-72
2023/04/06 13:07:25;;;;;;;;;;;11.50;50.60;;;;;;5039861;28;19936;-71
2023/04/06 13:09:51;;;;;;;;;;;11.50;48.80;;;;;;5038837;28;19991;-73
2023/04/06 13:12:18;;;;;;;;;;;11.60;49.50;;;;;;5038127;28;19983;-72
2023/04/06 13:14:47;;;;;;;;;;;11.60;49.70;;;;;;5039318;28;19937;-72
2023/04/06 13:17:13;;;;;;;;;;;11.70;49.90;;;;;;5033367;28;19929;-69
2023/04/06 13:19:41;;;;;;;;;;;11.70;49.20;;;;;;5035412;28;19932;-73
2023/04/06 13:22:08;;;;;;;;;;;11.70;49.00;;;;;;5042781;28;19935;-73
2023/04/06 13:24:34;;;;;;;;;;;11.80;49.30;;;;;;5040132;28;19982;-73
2023/04/06 13:27:02;;;;;;;;;;;11.90;48.50;;;;;;5043059;28;19943;-73
2023/04/06 13:29:28;;;;;;;;;;;11.90;49.00;;;;;;5043227;28;19928;-73
2023/04/06 13:31:55;;;;;;;;;;;11.90;49.30;;;;;;5055090;28;20480;-71
2023/04/06 13:34:21;;;;;;;;;;;12.00;49.30;;;;;;5058851;28;19932;-72
2023/04/06 13:36:49;;;;;;;;;;;12.00;49.00;;;;;;5056099;28;20021;-69
2023/04/06 13:39:16;;;;;;;;;;;12.00;48.90;;;;;;5055574;28;20752;-72
2023/04/06 13:41:42;;;;;;;;;;;12.00;48.10;;;;;;5054036;28;19975;-71
2023/04/06 13:44:09;;;;;;;;;;;12.00;48.10;;;;;;5057397;28;19935;-73
2023/04/06 13:46:36;;;;;;;;;;;12.10;48.70;;;;;;5054538;28;20496;-71
2023/04/06 13:49:02;;;;;;;;;;;12.10;47.90;;;;;;5053303;28;19936;-72
2023/04/06 13:51:29;;;;;;;;;;;12.10;48.10;;;;;;5059440;28;19932;-72
2023/04/06 13:53:56;;;;;;;;;;;12.10;48.20;;;;;;5056371;28;19933;-73
2023/04/06 13:56:23;;;;;;;;;;;12.10;47.90;;;;;;5057888;28;19944;-70
2023/04/06 13:58:49;;;;;;;;;;;12.10;48.20;;;;;;5061776;28;19974;-74
2023/04/06 14:01:16;;;;;;;;;;;12.10;48.40;;;;;;5059189;28;20661;-73
2023/04/06 14:03:44;;;;;;;;;;;12.10;48.60;;;;;;5047537;28;19928;-71
2023/04/06 14:06:12;;;;;;;;;;;12.10;48.50;;;;;;5054236;28;19940;-72
2023/04/06 14:08:38;;;;;;;;;;;12.10;48.70;;;;;;5055635;28;19943;-73
2023/04/06 14:11:07;;;;;;;;;;;12.10;47.60;;;;;;5060510;28;19933;-73
2023/04/06 14:13:34;;;;;;;;;;;12.10;48.20;;;;;;5058619;28;20398;-70
2023/04/06 14:16:01;;;;;;;;;;;12.10;48.40;;;;;;5052513;28;19936;-73
2023/04/06 14:18:30;;;;;;;;;;;12.10;48.50;;;;;;5057477;28;19928;-70
2023/04/06 14:20:57;;;;;;;;;;;12.10;49.00;;;;;;5056483;28;19928;-73
2023/04/06 14:23:25;;;;;;;;;;;12.10;49.20;;;;;;5056698;28;19936;-70
2023/04/06 14:25:52;;;;;;;;;;;12.10;49.40;;;;;;5052393;28;19932;-73
2023/04/06 14:28:21;;;;;;;;;;;12.10;49.40;;;;;;5050679;28;19929;-70